Time;durP1;ratioP1;P1;durP2;ratioP2;P2;SDS_P1;SDS_P2;PMS_P1;PMS_P2;Temp;Humidity;BMP_temperature;BMP_pressure;BME280_temperature;BME280_humidity;BME280_pressure;Samples;Min_cycle;Max_cycle;Signal;HPM_P1;HPM_P2
2022/09/06 00:02:16;;;;;;;8.27;3.85;;;;;;;;;;8145729;29;20058;-85
2022/09/06 00:06:20;;;;;;;7.00;3.58;;;;;;;;;;8143847;29;20048;-87
2022/09/06 00:10:22;;;;;;;7.15;3.75;;;;;;;;;;8140739;29;20087;-86
2022/09/06 00:14:26;;;;;;;8.00;4.10;;;;;;;;;;8141513;29;20044;-86
2022/09/06 00:18:28;;;;;;;8.27;4.18;;;;;;;;;;8140254;29;20075;-86
2022/09/06 00:22:31;;;;;;;9.88;4.35;;;;;;;;;;8153828;29;20044;-86
2022/09/06 00:26:33;;;;;;;6.85;4.15;;;;;;;;;;8147674;29;20056;-85
2022/09/06 00:30:37;;;;;;;8.10;3.55;;;;;;;;;;8148139;29;20047;-86
2022/09/06 00:34:41;;;;;;;6.90;3.70;;;;;;;;;;8145610;29;20083;-86
2022/09/06 00:38:44;;;;;;;6.35;3.28;;;;;;;;;;8140215;29;20068;-85
2022/09/06 00:42:46;;;;;;;8.27;3.92;;;;;;;;;;8150219;29;20047;-85
2022/09/06 00:46:53;;;;;;;9.27;4.00;;;;;;;;;;8148320;29;20076;-85
2022/09/06 00:50:58;;;;;;;7.55;3.78;;;;;;;;;;8148767;29;20407;-84
2022/09/06 00:55:01;;;;;;;10.80;3.75;;;;;;;;;;8147424;29;20099;-86
2022/09/06 00:59:04;;;;;;;9.88;3.38;;;;;;;;;;8141415;29;20056;-84
2022/09/06 01:03:10;;;;;;;6.75;3.55;;;;;;;;;;8143449;29;20044;-86
2022/09/06 01:07:20;;;;;;;7.30;3.33;;;;;;;;;;8149800;29;20411;-86
2022/09/06 01:11:36;;;;;;;9.18;4.10;;;;;;;;;;8150154;29;20051;-85
2022/09/06 01:15:50;;;;;;;7.90;3.80;;;;;;;;;;8149437;29;20071;-85
2022/09/06 01:20:20;;;;;;;5.03;3.00;;;;;;;;;;8150217;29;20056;-85
2022/09/06 01:24:51;;;;;;;8.48;3.67;;;;;;;;;;8147046;29;20055;-86
2022/09/06 01:28:56;;;;;;;6.83;3.77;;;;;;;;;;8147561;29;20047;-85
2022/09/06 01:33:07;;;;;;;7.65;3.35;;;;;;;;;;8141790;29;20127;-86
2022/09/06 01:37:13;;;;;;;6.72;3.45;;;;;;;;;;8139845;29;20060;-85
2022/09/06 01:41:15;;;;;;;8.82;3.30;;;;;;;;;;8156028;29;20135;-85
2022/09/06 01:45:21;;;;;;;7.15;3.33;;;;;;;;;;8147666;29;20056;-85
2022/09/06 01:49:36;;;;;;;7.00;3.55;;;;;;;;;;8144605;29;20075;-85
2022/09/06 01:53:58;;;;;;;8.35;3.35;;;;;;;;;;8142826;29;20052;-86
2022/09/06 01:58:25;;;;;;;6.73;3.47;;;;;;;;;;8139840;29;20123;-86
2022/09/06 02:02:42;;;;;;;11.60;3.90;;;;;;;;;;8138825;29;20311;-85
2022/09/06 02:06:49;;;;;;;5.80;3.20;;;;;;;;;;8150474;29;20064;-85
2022/09/06 02:10:56;;;;;;;7.38;3.08;;;;;;;;;;8145911;29;20398;-85
2022/09/06 02:15:03;;;;;;;6.15;3.47;;;;;;;;;;8159904;29;20059;-85
2022/09/06 02:19:12;;;;;;;7.68;3.15;;;;;;;;;;8148282;29;20059;-85
2022/09/06 02:23:16;;;;;;;7.75;3.85;;;;;;;;;;8144093;29;20052;-86
2022/09/06 02:27:19;;;;;;;12.05;7.07;;;;;;;;;;8142977;29;20044;-84
2022/09/06 02:31:26;;;;;;;16.63;10.63;;;;;;;;;;8138852;29;20087;-85
2022/09/06 02:35:31;;;;;;;19.45;10.95;;;;;;;;;;8152423;29;20046;-86
2022/09/06 02:39:33;;;;;;;15.65;8.90;;;;;;;;;;8124908;29;20056;-86
2022/09/06 02:43:36;;;;;;;12.30;6.97;;;;;;;;;;8119395;29;20056;-85
2022/09/06 02:47:38;;;;;;;9.10;5.38;;;;;;;;;;8125607;29;20059;-86
2022/09/06 02:51:45;;;;;;;8.02;5.10;;;;;;;;;;8127538;29;20044;-85
2022/09/06 02:55:48;;;;;;;8.48;5.43;;;;;;;;;;8114206;29;20493;-85
2022/09/06 02:59:51;;;;;;;12.65;5.20;;;;;;;;;;8121389;29;20485;-85
2022/09/06 03:03:54;;;;;;;7.50;3.53;;;;;;;;;;8124479;29;20122;-87
2022/09/06 03:07:58;;;;;;;7.38;4.22;;;;;;;;;;8118335;29;20053;-85
2022/09/06 03:12:01;;;;;;;6.47;4.13;;;;;;;;;;8121297;29;20052;-86
2022/09/06 03:16:03;;;;;;;7.72;4.38;;;;;;;;;;8122612;29;20061;-85
2022/09/06 03:20:08;;;;;;;8.88;4.00;;;;;;;;;;8128868;29;20096;-85
2022/09/06 03:24:12;;;;;;;9.70;3.88;;;;;;;;;;8112899;29;20048;-85
2022/09/06 03:28:14;;;;;;;16.65;3.88;;;;;;;;;;8111075;29;20106;-85
2022/09/06 03:32:17;;;;;;;9.57;4.20;;;;;;;;;;8132462;29;20416;-85
2022/09/06 03:36:19;;;;;;;;;;;;;;;;;;8124364;29;20143;-85
2022/09/06 03:40:23;;;;;;;8.75;3.70;;;;;;;;;;8149146;29;19923;-85
2022/09/06 03:44:25;;;;;;;12.48;4.00;;;;;;;;;;8144408;29;20481;-84
2022/09/06 03:48:29;;;;;;;6.68;3.45;;;;;;;;;;8150419;29;20047;-84
2022/09/06 03:52:32;;;;;;;9.70;3.50;;;;;;;;;;8152411;29;20404;-85
2022/09/06 03:56:36;;;;;;;6.50;3.63;;;;;;;;;;8162942;29;20107;-84
2022/09/06 04:00:38;;;;;;;7.88;3.70;;;;;;;;;;8151086;29;20051;-85
2022/09/06 04:04:41;;;;;;;6.35;3.95;;;;;;;;;;8146296;29;20055;-85
2022/09/06 04:08:43;;;;;;;6.53;3.97;;;;;;;;;;8159079;29;20047;-85
2022/09/06 04:12:47;;;;;;;11.38;4.45;;;;;;;;;;8151425;29;20046;-86
2022/09/06 04:16:50;;;;;;;11.73;5.05;;;;;;;;;;8156417;29;20059;-84
2022/09/06 04:20:55;;;;;;;12.63;4.75;;;;;;;;;;8140024;29;20070;-85
2022/09/06 04:24:59;;;;;;;12.57;5.40;;;;;;;;;;8150655;29;20087;-85
2022/09/06 04:29:03;;;;;;;12.35;5.38;;;;;;;;;;8139283;29;20064;-85
2022/09/06 04:33:06;;;;;;;8.50;5.03;;;;;;;;;;8143540;29;20055;-85
2022/09/06 04:37:08;;;;;;;10.13;5.30;;;;;;;;;;8148198;29;20063;-85
2022/09/06 04:41:13;;;;;;;11.45;6.55;;;;;;;;;;8146555;29;20058;-85
2022/09/06 04:45:17;;;;;;;8.10;4.10;;;;;;;;;;8149269;29;20484;-85
2022/09/06 04:49:19;;;;;;;10.35;6.07;;;;;;;;;;8152707;29;20555;-86
2022/09/06 04:53:22;;;;;;;10.05;5.70;;;;;;;;;;8139702;29;20048;-85
2022/09/06 04:57:24;;;;;;;14.98;7.57;;;;;;;;;;8160409;29;20134;-85
2022/09/06 05:01:28;;;;;;;11.85;6.90;;;;;;;;;;8148687;29;20052;-85
2022/09/06 05:05:30;;;;;;;11.73;5.50;;;;;;;;;;8145783;29;20143;-87
2022/09/06 05:09:34;;;;;;;14.68;5.38;;;;;;;;;;8144634;29;20047;-85
2022/09/06 05:13:36;;;;;;;9.88;6.18;;;;;;;;;;8153562;29;20477;-85
2022/09/06 05:17:40;;;;;;;7.30;3.97;;;;;;;;;;8139143;29;20139;-85
2022/09/06 05:21:42;;;;;;;5.05;3.30;;;;;;;;;;8162307;29;20147;-85
2022/09/06 05:25:45;;;;;;;7.95;3.78;;;;;;;;;;8144003;29;20054;-86
2022/09/06 05:29:47;;;;;;;7.25;4.55;;;;;;;;;;8148576;29;20051;-86
2022/09/06 05:33:52;;;;;;;10.32;4.10;;;;;;;;;;8153581;29;20400;-85
2022/09/06 05:37:54;;;;;;;5.72;3.67;;;;;;;;;;8143298;29;20060;-85
2022/09/06 05:41:57;;;;;;;11.93;3.90;;;;;;;;;;8142639;29;20473;-86
2022/09/06 05:46:00;;;;;;;11.90;3.70;;;;;;;;;;8138521;29;20497;-85
2022/09/06 05:50:05;;;;;;;7.28;2.90;;;;;;;;;;8155847;29;20072;-86
2022/09/06 05:54:10;;;;;;;6.85;2.70;;;;;;;;;;8151518;29;20055;-86
2022/09/06 05:58:13;;;;;;;6.82;3.00;;;;;;;;;;8144286;29;20048;-85
2022/09/06 06:02:15;;;;;;;9.35;3.55;;;;;;;;;;8143640;29;20056;-86
2022/09/06 06:06:20;;;;;;;10.85;3.25;;;;;;;;;;8164549;29;20050;-87
2022/09/06 06:10:22;;;;;;;9.50;3.53;;;;;;;;;;8141474;29;20063;-85
2022/09/06 06:14:25;;;;;;;5.55;2.85;;;;;;;;;;8166958;29;20151;-86
2022/09/06 06:18:28;;;;;;;6.93;2.92;;;;;;;;;;8146261;29;20044;-86
2022/09/06 06:22:32;;;;;;;8.45;3.00;;;;;;;;;;8142362;29;20104;-86
2022/09/06 06:26:36;;;;;;;6.75;3.05;;;;;;;;;;8138174;29;20056;-87
2022/09/06 06:30:38;;;;;;;8.55;3.38;;;;;;;;;;8148405;29;20123;-87
2022/09/06 06:34:41;;;;;;;7.55;2.90;;;;;;;;;;8142223;29;20048;-86
2022/09/06 06:38:46;;;;;;;7.25;2.80;;;;;;;;;;8164273;29;20059;-87
2022/09/06 06:42:48;;;;;;;9.05;3.20;;;;;;;;;;8157579;29;20513;-88
2022/09/06 06:46:53;;;;;;;7.47;3.08;;;;;;;;;;8158040;29;20496;-88
2022/09/06 06:50:55;;;;;;;5.90;3.13;;;;;;;;;;8196730;23;20057;-87
2022/09/06 06:54:59;;;;;;;5.72;2.70;;;;;;;;;;8286600;28;20548;-87
2022/09/06 06:59:04;;;;;;;5.03;2.47;;;;;;;;;;8286404;28;20050;-87
2022/09/06 07:03:10;;;;;;;7.03;2.80;;;;;;;;;;8291994;28;20108;-86
2022/09/06 07:07:15;;;;;;;7.80;2.80;;;;;;;;;;8292797;28;20046;-87
2022/09/06 07:11:19;;;;;;;5.55;2.53;;;;;;;;;;8295678;28;20049;-87
2022/09/06 07:15:22;;;;;;;5.90;3.75;;;;;;;;;;8291866;28;20073;-88
2022/09/06 07:19:37;;;;;;;5.15;2.63;;;;;;;;;;8291272;28;20042;-89
2022/09/06 07:23:39;;;;;;;6.22;3.08;;;;;;;;;;8287502;28;20505;-88
2022/09/06 07:27:47;;;;;;;8.07;3.92;;;;;;;;;;8290139;28;20049;-90
2022/09/06 07:31:51;;;;;;;6.90;3.70;;;;;;;;;;8293254;28;20125;-88
2022/09/06 07:36:10;;;;;;;13.38;7.57;;;;;;;;;;8357457;23;20113;-90
2022/09/06 07:40:20;;;;;;;7.70;2.80;;;;;;;;;;8249124;28;20057;-89
2022/09/06 07:44:34;;;;;;;9.75;3.95;;;;;;;;;;8265951;23;20081;-88
2022/09/06 07:48:38;;;;;;;5.63;3.20;;;;;;;;;;8256896;28;20046;-90
2022/09/06 07:52:41;;;;;;;5.80;2.90;;;;;;;;;;8259291;28;20050;-89
2022/09/06 07:56:43;;;;;;;4.35;2.35;;;;;;;;;;8259874;28;20050;-88
2022/09/06 08:01:13;;;;;;;7.72;3.05;;;;;;;;;;8260505;28;20046;-89
2022/09/06 08:05:16;;;;;;;5.37;2.30;;;;;;;;;;8255690;28;20061;-85
2022/09/06 08:09:19;;;;;;;4.68;2.65;;;;;;;;;;8265845;28;20493;-88
2022/09/06 08:13:21;;;;;;;5.05;2.08;;;;;;;;;;8266349;28;20050;-87
2022/09/06 08:17:35;;;;;;;3.05;1.83;;;;;;;;;;8256667;28;20046;-87
2022/09/06 08:21:38;;;;;;;4.30;1.83;;;;;;;;;;8261469;28;20057;-88
2022/09/06 08:25:59;;;;;;;3.65;2.10;;;;;;;;;;8256117;28;20046;-86
2022/09/06 08:30:01;;;;;;;3.00;1.90;;;;;;;;;;8248815;28;20054;-88
2022/09/06 08:34:06;;;;;;;4.20;1.73;;;;;;;;;;8255363;28;20054;-88
2022/09/06 08:38:08;;;;;;;3.97;1.60;;;;;;;;;;8248067;28;20548;-87
2022/09/06 08:42:12;;;;;;;3.67;1.42;;;;;;;;;;8256972;28;20089;-88
2022/09/06 08:46:17;;;;;;;2.08;1.40;;;;;;;;;;8260149;28;20046;-88
2022/09/06 08:50:28;;;;;;;12.57;7.38;;;;;;;;;;8256987;28;20496;-87
2022/09/06 08:54:37;;;;;;;3.88;2.10;;;;;;;;;;8259089;28;20360;-88
2022/09/06 08:59:02;;;;;;;21.42;8.38;;;;;;;;;;8249722;28;20039;-87
2022/09/06 09:03:09;;;;;;;8.88;3.30;;;;;;;;;;8260626;28;20054;-86
2022/09/06 09:07:30;;;;;;;16.40;6.53;;;;;;;;;;8254294;28;20047;-86
2022/09/06 09:11:34;;;;;;;6.22;3.35;;;;;;;;;;8258941;28;20061;-88
2022/09/06 09:15:37;;;;;;;5.13;2.00;;;;;;;;;;8254375;28;20053;-86
2022/09/06 09:19:41;;;;;;;3.75;1.67;;;;;;;;;;8257411;28;20050;-86
2022/09/06 09:23:52;;;;;;;6.28;2.17;;;;;;;;;;8256220;28;20046;-89
2022/09/06 09:27:57;;;;;;;7.10;2.47;;;;;;;;;;8272497;28;20052;-87
2022/09/06 09:32:03;;;;;;;4.63;1.98;;;;;;;;;;8256297;28;20050;-87
2022/09/06 09:36:08;;;;;;;4.07;1.83;;;;;;;;;;8276205;28;20121;-87
2022/09/06 09:40:18;;;;;;;4.90;1.95;;;;;;;;;;8257246;28;20060;-87
2022/09/06 09:44:26;;;;;;;7.95;2.33;;;;;;;;;;8260942;28;20050;-87
2022/09/06 09:48:29;;;;;;;5.95;2.60;;;;;;;;;;8270071;28;20050;-88
2022/09/06 09:52:32;;;;;;;7.30;2.38;;;;;;;;;;8262460;28;20050;-88
2022/09/06 09:56:42;;;;;;;5.32;2.13;;;;;;;;;;8257493;28;20414;-88
2022/09/06 10:00:46;;;;;;;45.97;25.38;;;;;;;;;;8264512;28;20038;-87
2022/09/06 10:04:52;;;;;;;2.00;1.60;;;;;;;;;;8262084;28;20050;-86
2022/09/06 10:08:58;;;;;;;2.85;1.70;;;;;;;;;;8263293;28;20953;-87
2022/09/06 10:13:14;;;;;;;5.47;1.83;;;;;;;;;;8257762;28;20046;-87
2022/09/06 10:17:34;;;;;;;6.50;2.65;;;;;;;;;;8261898;28;20117;-87
2022/09/06 10:21:40;;;;;;;3.65;1.77;;;;;;;;;;8263809;28;20097;-85
2022/09/06 10:25:46;;;;;;;16.15;4.90;;;;;;;;;;8271220;28;20042;-88
2022/09/06 10:29:56;;;;;;;11.25;3.72;;;;;;;;;;8268422;28;20052;-87
2022/09/06 10:34:10;;;;;;;7.88;2.58;;;;;;;;;;8256894;28;20050;-87
2022/09/06 10:38:31;;;;;;;4.68;1.95;;;;;;;;;;8253991;28;20523;-87
2022/09/06 10:42:42;;;;;;;3.72;1.52;;;;;;;;;;8251043;28;20129;-87
2022/09/06 10:46:48;;;;;;;5.32;2.05;;;;;;;;;;8261429;28;20046;-87
2022/09/06 10:50:55;;;;;;;5.85;1.70;;;;;;;;;;8259557;28;20042;-87
2022/09/06 10:55:03;;;;;;;6.10;2.22;;;;;;;;;;8252136;28;20537;-87
2022/09/06 10:59:16;;;;;;;7.55;2.05;;;;;;;;;;8261541;28;20125;-87
2022/09/06 11:03:27;;;;;;;2.20;1.50;;;;;;;;;;8269607;28;20050;-87
2022/09/06 11:07:33;;;;;;;;;;;;;;;;;;8257088;28;20509;-86
2022/09/06 11:11:43;;;;;;;2.75;1.27;;;;;;;;;;8259585;28;19921;-87
2022/09/06 11:15:51;;;;;;;4.13;1.47;;;;;;;;;;8271556;28;20166;-87
2022/09/06 11:20:03;;;;;;;2.05;1.52;;;;;;;;;;8259679;28;20058;-86
2022/09/06 11:24:12;;;;;;;2.33;1.30;;;;;;;;;;8254198;28;20054;-86
2022/09/06 11:28:18;;;;;;;4.53;1.60;;;;;;;;;;8254013;28;20050;-87
2022/09/06 11:32:31;;;;;;;4.10;1.52;;;;;;;;;;8260645;28;20446;-86
2022/09/06 11:36:47;;;;;;;3.22;1.45;;;;;;;;;;8257886;28;20410;-87
2022/09/06 11:40:56;;;;;;;3.90;1.73;;;;;;;;;;8259094;28;20537;-87
2022/09/06 11:45:45;;;;;;;3.83;1.50;;;;;;;;;;8251355;28;20408;-87
2022/09/06 11:54:33;;;;;;;4.32;1.60;;;;;;;;;;8259582;28;20077;-87
2022/09/06 11:58:51;;;;;;;1.70;1.20;;;;;;;;;;8257261;28;20053;-87
2022/09/06 12:02:53;;;;;;;2.47;1.35;;;;;;;;;;8262722;28;20081;-87
2022/09/06 12:07:09;;;;;;;4.57;1.60;;;;;;;;;;8257369;28;20038;-88
2022/09/06 12:11:37;;;;;;;2.67;1.20;;;;;;;;;;8261638;28;20097;-87
2022/09/06 12:15:46;;;;;;;3.38;1.35;;;;;;;;;;8256099;28;20042;-87
2022/09/06 12:19:50;;;;;;;3.67;1.42;;;;;;;;;;8258251;28;20046;-86
2022/09/06 12:23:56;;;;;;;3.38;1.80;;;;;;;;;;8258521;28;20126;-88
2022/09/06 12:28:07;;;;;;;2.25;1.33;;;;;;;;;;8261617;28;20046;-87
2022/09/06 12:32:10;;;;;;;3.92;1.30;;;;;;;;;;8267220;28;20129;-87
2022/09/06 12:36:13;;;;;;;2.63;1.30;;;;;;;;;;8258823;28;20763;-87
2022/09/06 12:40:19;;;;;;;2.40;1.50;;;;;;;;;;8256103;28;20054;-87
2022/09/06 12:44:33;;;;;;;3.17;1.08;;;;;;;;;;8257188;28;20062;-88
2022/09/06 12:48:40;;;;;;;4.78;1.50;;;;;;;;;;8259983;28;20661;-86
2022/09/06 12:52:52;;;;;;;3.42;1.05;;;;;;;;;;8262631;28;20042;-88
2022/09/06 12:57:17;;;;;;;3.30;1.42;;;;;;;;;;8250390;28;20069;-87
2022/09/06 13:01:30;;;;;;;1.98;1.10;;;;;;;;;;8256042;28;20474;-87
2022/09/06 13:05:33;;;;;;;4.28;1.67;;;;;;;;;;8259967;28;20121;-87
2022/09/06 13:09:38;;;;;;;2.67;1.25;;;;;;;;;;8260664;28;20050;-87
2022/09/06 13:13:48;;;;;;;3.92;1.17;;;;;;;;;;8257065;28;20050;-86
2022/09/06 13:17:53;;;;;;;2.42;1.20;;;;;;;;;;8254976;28;20046;-86
2022/09/06 13:21:56;;;;;;;3.03;1.00;;;;;;;;;;8247949;28;20066;-87
2022/09/06 13:26:02;;;;;;;1.77;1.20;;;;;;;;;;8256547;28;20043;-88
2022/09/06 13:30:07;;;;;;;2.95;1.50;;;;;;;;;;8259926;28;20054;-87
2022/09/06 13:34:21;;;;;;;2.67;1.30;;;;;;;;;;8256939;28;20410;-87
2022/09/06 13:38:41;;;;;;;2.28;1.42;;;;;;;;;;8256093;28;20058;-87
2022/09/06 13:42:44;;;;;;;6.40;1.20;;;;;;;;;;8265615;28;20069;-86
2022/09/06 13:46:52;;;;;;;1.98;1.20;;;;;;;;;;8253240;28;20161;-86
2022/09/06 13:50:57;;;;;;;1.80;1.00;;;;;;;;;;8252821;28;20049;-87
2022/09/06 13:54:59;;;;;;;4.38;1.35;;;;;;;;;;8261913;28;20050;-87
2022/09/06 13:59:02;;;;;;;2.55;1.60;;;;;;;;;;8248789;28;20508;-87
2022/09/06 14:03:04;;;;;;;2.95;0.95;;;;;;;;;;8243769;28;20399;-87
2022/09/06 14:07:09;;;;;;;2.33;1.25;;;;;;;;;;8250775;28;20050;-87
2022/09/06 14:11:12;;;;;;;1.92;1.17;;;;;;;;;;8256322;28;20546;-86
2022/09/06 14:15:14;;;;;;;7.22;3.00;;;;;;;;;;8256866;28;20038;-87
2022/09/06 14:19:17;;;;;;;2.35;1.42;;;;;;;;;;8263515;28;20061;-86
2022/09/06 14:23:22;;;;;;;2.42;1.40;;;;;;;;;;8276063;28;20042;-86
2022/09/06 14:27:24;;;;;;;4.95;1.95;;;;;;;;;;8284481;28;20093;-85
2022/09/06 14:31:28;;;;;;;4.03;1.33;;;;;;;;;;8280939;28;20042;-86
2022/09/06 14:35:31;;;;;;;4.75;1.52;;;;;;;;;;8283581;28;20038;-86
2022/09/06 14:39:35;;;;;;;3.22;1.30;;;;;;;;;;8291714;28;20053;-86
2022/09/06 14:43:38;;;;;;;6.10;1.30;;;;;;;;;;8290032;28;20071;-86
2022/09/06 14:47:40;;;;;;;2.45;1.50;;;;;;;;;;8279801;28;20496;-85
2022/09/06 14:51:44;;;;;;;2.22;1.35;;;;;;;;;;8298039;28;20409;-86
2022/09/06 14:55:49;;;;;;;1.85;1.48;;;;;;;;;;8281990;28;20043;-86
2022/09/06 14:59:52;;;;;;;5.50;1.20;;;;;;;;;;8288340;28;20438;-86
2022/09/06 15:03:56;;;;;;;3.38;1.60;;;;;;;;;;8289392;28;20108;-85
2022/09/06 15:07:58;;;;;;;4.20;1.25;;;;;;;;;;8292511;28;20441;-85
2022/09/06 15:12:03;;;;;;;2.83;1.13;;;;;;;;;;8290011;28;20479;-86
2022/09/06 15:16:07;;;;;;;3.17;1.40;;;;;;;;;;8289816;28;20045;-85
2022/09/06 15:20:10;;;;;;;2.65;1.27;;;;;;;;;;8295883;28;20520;-85
2022/09/06 15:24:13;;;;;;;8.43;3.70;;;;;;;;;;8284859;28;20438;-85
2022/09/06 15:28:18;;;;;;;16.95;11.82;;;;;;;;;;8289781;28;20407;-86
2022/09/06 15:32:21;;;;;;;12.63;10.45;;;;;;;;;;8285684;28;20558;-85
2022/09/06 15:36:24;;;;;;;20.15;11.68;;;;;;;;;;8294164;28;20057;-86
2022/09/06 15:40:26;;;;;;;31.42;17.17;;;;;;;;;;8294944;28;20512;-85
2022/09/06 15:44:30;;;;;;;32.70;23.88;;;;;;;;;;8290316;28;20054;-86
2022/09/06 15:48:41;;;;;;;16.95;9.57;;;;;;;;;;8281097;28;20050;-85
2022/09/06 15:52:44;;;;;;;7.47;2.70;;;;;;;;;;8264803;28;20042;-85
2022/09/06 15:56:48;;;;;;;7.85;2.00;;;;;;;;;;8254204;28;20049;-87
2022/09/06 16:01:05;;;;;;;7.40;2.30;;;;;;;;;;8267059;28;20045;-87
2022/09/06 16:05:09;;;;;;;9.48;4.40;;;;;;;;;;8285927;28;20516;-86
2022/09/06 16:09:19;;;;;;;10.73;2.60;;;;;;;;;;8283961;28;20054;-86
2022/09/06 16:13:24;;;;;;;20.88;10.82;;;;;;;;;;8267567;28;20043;-87
2022/09/06 16:17:30;;;;;;;16.65;6.90;;;;;;;;;;8261041;28;20050;-86
2022/09/06 16:21:34;;;;;;;11.52;8.35;;;;;;;;;;8257408;28;20054;-85
2022/09/06 16:25:40;;;;;;;7.40;3.60;;;;;;;;;;8257276;28;20042;-85
2022/09/06 16:29:44;;;;;;;9.43;4.88;;;;;;;;;;8254012;28;20074;-86
2022/09/06 16:33:49;;;;;;;9.77;6.85;;;;;;;;;;8256273;28;20098;-86
2022/09/06 16:37:51;;;;;;;7.70;4.25;;;;;;;;;;8245541;28;20034;-86
2022/09/06 16:41:54;;;;;;;7.13;4.22;;;;;;;;;;8243378;28;20055;-87
2022/09/06 16:45:58;;;;;;;6.13;3.85;;;;;;;;;;8245278;28;20046;-86
2022/09/06 16:50:02;;;;;;;10.05;4.30;;;;;;;;;;8260348;28;20048;-87
2022/09/06 16:54:04;;;;;;;4.85;3.17;;;;;;;;;;8258058;28;20509;-86
2022/09/06 16:58:07;;;;;;;7.13;2.35;;;;;;;;;;8265653;28;20061;-87
2022/09/06 17:02:09;;;;;;;4.88;1.75;;;;;;;;;;8253763;28;20050;-86
2022/09/06 17:06:14;;;;;;;4.20;2.42;;;;;;;;;;8247231;28;20058;-86
2022/09/06 17:10:17;;;;;;;5.00;2.33;;;;;;;;;;8246990;28;20073;-86
2022/09/06 17:14:20;;;;;;;4.75;2.80;;;;;;;;;;8247762;28;20042;-86
2022/09/06 17:18:25;;;;;;;4.13;2.47;;;;;;;;;;8248550;28;20228;-86
2022/09/06 17:22:29;;;;;;;10.10;4.80;;;;;;;;;;8244655;28;20051;-86
2022/09/06 17:26:33;;;;;;;10.38;3.13;;;;;;;;;;8249807;28;20057;-86
2022/09/06 17:30:39;;;;;;;4.45;2.13;;;;;;;;;;8255950;28;20047;-86
2022/09/06 17:34:42;;;;;;;4.22;2.17;;;;;;;;;;8251388;28;20046;-86
2022/09/06 17:38:49;;;;;;;4.22;2.35;;;;;;;;;;8253977;28;20051;-87
2022/09/06 17:42:51;;;;;;;10.68;2.10;;;;;;;;;;8245435;28;20525;-86
2022/09/06 17:46:55;;;;;;;3.50;2.25;;;;;;;;;;8246341;28;20254;-87
2022/09/06 17:51:05;;;;;;;5.53;2.75;;;;;;;;;;8242700;28;20053;-86
2022/09/06 17:55:11;;;;;;;5.47;3.40;;;;;;;;;;8251491;28;20056;-85
2022/09/06 17:59:14;;;;;;;6.78;3.92;;;;;;;;;;8256104;28;20046;-86
2022/09/06 18:03:17;;;;;;;11.32;5.60;;;;;;;;;;8278877;28;20046;-86
2022/09/06 18:07:19;;;;;;;10.20;4.95;;;;;;;;;;8288835;28;20053;-85
2022/09/06 18:11:26;;;;;;;8.43;4.07;;;;;;;;;;8264262;28;20501;-86
2022/09/06 18:15:30;;;;;;;8.73;3.72;;;;;;;;;;8244022;28;20163;-86
2022/09/06 18:19:33;;;;;;;6.68;4.45;;;;;;;;;;8247130;28;20138;-86
2022/09/06 18:23:37;;;;;;;31.33;13.10;;;;;;;;;;8265346;28;20402;-86
2022/09/06 18:27:42;;;;;;;48.83;21.00;;;;;;;;;;8253953;28;20042;-85
2022/09/06 18:31:46;;;;;;;31.17;11.93;;;;;;;;;;8245079;28;20538;-86
2022/09/06 18:35:49;;;;;;;44.72;15.40;;;;;;;;;;8252019;28;20054;-85
2022/09/06 18:39:57;;;;;;;33.10;12.90;;;;;;;;;;8258005;28;20491;-86
2022/09/06 18:44:04;;;;;;;15.65;5.88;;;;;;;;;;8261638;28;20154;-85
2022/09/06 18:48:08;;;;;;;28.05;8.52;;;;;;;;;;8289389;28;20053;-85
2022/09/06 18:52:12;;;;;;;20.88;6.07;;;;;;;;;;8290515;28;20053;-86
2022/09/06 18:56:16;;;;;;;20.08;9.73;;;;;;;;;;8293405;28;20125;-85
2022/09/06 19:00:25;;;;;;;52.90;16.88;;;;;;;;;;8284956;28;20120;-86
2022/09/06 19:04:31;;;;;;;7.63;3.53;;;;;;;;;;8285413;28;20042;-86
2022/09/06 19:08:35;;;;;;;11.30;5.20;;;;;;;;;;8273727;28;20050;-87
2022/09/06 19:12:38;;;;;;;5.43;2.80;;;;;;;;;;8290189;28;20478;-86
2022/09/06 19:16:47;;;;;;;13.27;5.80;;;;;;;;;;8286242;28;20041;-86
2022/09/06 19:20:57;;;;;;;77.70;19.13;;;;;;;;;;8263191;28;20050;-85
2022/09/06 19:25:00;;;;;;;9.02;3.63;;;;;;;;;;8276712;28;20053;-85
2022/09/06 19:29:04;;;;;;;32.13;6.97;;;;;;;;;;8279011;28;20050;-86
2022/09/06 19:33:10;;;;;;;19.55;10.73;;;;;;;;;;8291420;28;20050;-86
2022/09/06 19:37:12;;;;;;;30.77;7.13;;;;;;;;;;8284168;28;20120;-85
2022/09/06 19:41:19;;;;;;;28.75;6.53;;;;;;;;;;8293719;28;20050;-86
2022/09/06 19:45:22;;;;;;;7.57;2.92;;;;;;;;;;8249702;28;20065;-86
2022/09/06 19:49:27;;;;;;;30.25;9.98;;;;;;;;;;8255743;28;20043;-86
2022/09/06 19:53:30;;;;;;;14.23;6.55;;;;;;;;;;8281315;28;20050;-86
2022/09/06 19:57:33;;;;;;;10.77;5.18;;;;;;;;;;8294416;28;20042;-86
2022/09/06 20:01:37;;;;;;;9.45;3.22;;;;;;;;;;8295904;28;20103;-86
2022/09/06 20:05:42;;;;;;;32.67;8.77;;;;;;;;;;8278162;28;20050;-86
2022/09/06 20:09:45;;;;;;;13.60;4.30;;;;;;;;;;8287444;28;20052;-87
2022/09/06 20:13:48;;;;;;;13.90;7.10;;;;;;;;;;8275730;28;20406;-87
2022/09/06 20:18:02;;;;;;;15.82;10.48;;;;;;;;;;8285057;28;20046;-86
2022/09/06 20:22:07;;;;;;;18.30;5.68;;;;;;;;;;8292684;28;20069;-86
2022/09/06 20:26:12;;;;;;;22.67;6.90;;;;;;;;;;8287681;28;20121;-86
2022/09/06 20:30:17;;;;;;;20.00;5.05;;;;;;;;;;8281200;28;20489;-87
2022/09/06 20:34:20;;;;;;;10.00;3.70;;;;;;;;;;8268760;28;20073;-86
2022/09/06 20:38:24;;;;;;;6.57;2.30;;;;;;;;;;8287933;28;20478;-86
2022/09/06 20:42:27;;;;;;;8.77;2.70;;;;;;;;;;8295065;28;20050;-86
2022/09/06 20:46:32;;;;;;;6.03;3.10;;;;;;;;;;8290795;28;20418;-86
2022/09/06 20:50:34;;;;;;;7.18;3.30;;;;;;;;;;8280719;28;20487;-86
2022/09/06 20:54:38;;;;;;;7.47;3.67;;;;;;;;;;8271376;28;20047;-86
2022/09/06 20:58:41;;;;;;;7.05;2.85;;;;;;;;;;8278313;28;20046;-86
2022/09/06 21:02:45;;;;;;;6.15;3.25;;;;;;;;;;8285008;28;20779;-86
2022/09/06 21:06:49;;;;;;;10.07;4.13;;;;;;;;;;8273468;28;20038;-84
2022/09/06 21:11:00;;;;;;;5.55;3.15;;;;;;;;;;8285556;28;20046;-86
2022/09/06 21:15:02;;;;;;;8.20;3.30;;;;;;;;;;8286758;28;20041;-85
2022/09/06 21:19:07;;;;;;;9.07;3.75;;;;;;;;;;8290433;28;20041;-86
2022/09/06 21:23:09;;;;;;;6.47;3.42;;;;;;;;;;8293396;28;20041;-86
2022/09/06 21:27:13;;;;;;;9.88;3.17;;;;;;;;;;8280215;28;20046;-86
2022/09/06 21:31:17;;;;;;;6.43;3.03;;;;;;;;;;8287390;28;20053;-86
2022/09/06 21:35:20;;;;;;;5.43;2.22;;;;;;;;;;8291211;28;20046;-86
2022/09/06 21:39:22;;;;;;;6.82;2.95;;;;;;;;;;8292888;28;20056;-85
2022/09/06 21:43:26;;;;;;;5.03;2.90;;;;;;;;;;8289178;28;20603;-85
2022/09/06 21:47:30;;;;;;;6.43;2.60;;;;;;;;;;8283969;28;20520;-85
2022/09/06 21:51:33;;;;;;;5.95;2.50;;;;;;;;;;8284203;28;20092;-86
2022/09/06 21:55:35;;;;;;;7.32;2.97;;;;;;;;;;8277136;28;20501;-85
2022/09/06 21:59:39;;;;;;;7.45;3.17;;;;;;;;;;8264359;28;20479;-86
2022/09/06 22:03:42;;;;;;;9.00;3.08;;;;;;;;;;8243617;28;20047;-86
2022/09/06 22:07:44;;;;;;;6.25;2.90;;;;;;;;;;8246260;28;20455;-86
2022/09/06 22:11:47;;;;;;;6.80;3.28;;;;;;;;;;8256997;28;20042;-85
2022/09/06 22:15:51;;;;;;;11.77;3.15;;;;;;;;;;8276641;28;20058;-87
2022/09/06 22:19:53;;;;;;;5.82;2.72;;;;;;;;;;8245432;28;20046;-86
2022/09/06 22:23:57;;;;;;;6.57;2.80;;;;;;;;;;8257471;28;20495;-85
2022/09/06 22:28:00;;;;;;;7.40;3.00;;;;;;;;;;8263160;28;20490;-86
2022/09/06 22:32:04;;;;;;;7.72;3.10;;;;;;;;;;8247664;28;20490;-85
2022/09/06 22:36:06;;;;;;;8.40;3.35;;;;;;;;;;8250175;28;20547;-86
2022/09/06 22:40:11;;;;;;;8.07;3.00;;;;;;;;;;8248993;28;20121;-87
2022/09/06 22:44:13;;;;;;;7.32;2.35;;;;;;;;;;8259429;28;20447;-87
2022/09/06 22:48:17;;;;;;;5.40;3.00;;;;;;;;;;8244913;28;20486;-86
2022/09/06 22:52:20;;;;;;;7.00;2.63;;;;;;;;;;8254463;28;20057;-87
2022/09/06 22:56:23;;;;;;;9.40;3.10;;;;;;;;;;8261920;28;20049;-86
2022/09/06 23:00:26;;;;;;;9.25;2.97;;;;;;;;;;8261171;28;20042;-87
2022/09/06 23:04:30;;;;;;;7.03;3.05;;;;;;;;;;8257439;28;20043;-86
2022/09/06 23:08:34;;;;;;;7.60;3.38;;;;;;;;;;8266481;28;20038;-86
2022/09/06 23:12:48;;;;;;;;;;;;;;;;;;;;;
2022/09/06 23:16:57;;;;;;;7.32;2.80;;;;;;;;;;8245459;28;20047;-86
2022/09/06 23:21:09;;;;;;;8.38;2.90;;;;;;;;;;8267365;28;20050;-87
2022/09/06 23:25:12;;;;;;;8.30;2.83;;;;;;;;;;8264227;28;20047;-86
2022/09/06 23:29:16;;;;;;;7.10;3.40;;;;;;;;;;8266400;28;20047;-86
2022/09/06 23:33:19;;;;;;;8.30;2.90;;;;;;;;;;8280617;28;20142;-86
2022/09/06 23:37:23;;;;;;;8.48;2.65;;;;;;;;;;8258178;28;20533;-85
2022/09/06 23:41:26;;;;;;;7.05;2.58;;;;;;;;;;8249272;28;20045;-86
2022/09/06 23:45:28;;;;;;;5.38;2.50;;;;;;;;;;8261055;28;20497;-85
2022/09/06 23:49:30;;;;;;;5.70;2.78;;;;;;;;;;8293213;28;20080;-86
2022/09/06 23:53:35;;;;;;;7.65;2.67;;;;;;;;;;8247263;28;20039;-86
2022/09/06 23:57:37;;;;;;;5.47;2.70;;;;;;;;;;8259651;28;20049;-88
